createdAt,value
2023-09-27T00:01:18.992Z,91.00
2023-09-27T00:03:45.885Z,91.20
2023-09-27T00:06:12.972Z,91.60
2023-09-27T00:08:40.007Z,91.80
2023-09-27T00:11:07.809Z,91.60
2023-09-27T00:13:34.693Z,91.20
2023-09-27T00:16:01.546Z,90.50
2023-09-27T00:18:28.847Z,90.60
2023-09-27T00:20:55.638Z,90.40
2023-09-27T00:23:22.440Z,90.40
2023-09-27T00:25:49.882Z,89.90
2023-09-27T00:28:16.748Z,90.00
2023-09-27T00:30:43.735Z,89.90
2023-09-27T00:33:10.602Z,90.20
2023-09-27T00:35:37.536Z,90.10
2023-09-27T00:38:04.594Z,89.90
2023-09-27T00:40:32.261Z,90.00
2023-09-27T00:42:59.112Z,90.20
2023-09-27T00:45:25.878Z,90.60
2023-09-27T00:47:53.218Z,90.50
2023-09-27T00:50:20.245Z,90.80
2023-09-27T00:52:49.035Z,91.10
2023-09-27T00:55:20.799Z,91.10
2023-09-27T00:57:50.520Z,91.20
2023-09-27T01:00:19.091Z,91.20
2023-09-27T01:02:45.969Z,90.90
2023-09-27T01:05:13.230Z,90.90
2023-09-27T01:07:41.357Z,90.40
2023-09-27T01:10:09.797Z,90.70
2023-09-27T01:12:38.236Z,90.60
2023-09-27T01:15:07.457Z,90.70
2023-09-27T01:17:36.325Z,90.50
2023-09-27T01:20:04.155Z,90.50
2023-09-27T01:22:31.782Z,89.70
2023-09-27T01:25:00.994Z,89.80
2023-09-27T01:27:27.965Z,90.40
2023-09-27T01:29:54.778Z,91.30
2023-09-27T01:32:21.667Z,92.20
2023-09-27T01:34:48.634Z,92.60
2023-09-27T01:37:15.476Z,92.60
2023-09-27T01:39:42.324Z,92.20
2023-09-27T01:42:11.956Z,92.90
2023-09-27T01:44:39.228Z,93.10
2023-09-27T01:47:06.223Z,93.20
2023-09-27T01:49:33.214Z,93.50
2023-09-27T01:52:00.215Z,93.40
2023-09-27T01:54:27.044Z,93.00
2023-09-27T01:56:53.851Z,92.90
2023-09-27T01:59:20.689Z,92.50
2023-09-27T02:01:47.555Z,92.50
2023-09-27T02:04:14.903Z,92.50
2023-09-27T02:06:41.774Z,92.20
2023-09-27T02:09:08.572Z,92.50
2023-09-27T02:11:35.379Z,92.70
2023-09-27T02:14:05.354Z,92.80
2023-09-27T02:16:35.470Z,92.50
2023-09-27T02:19:05.810Z,92.60
2023-09-27T02:21:33.450Z,93.00
2023-09-27T02:24:00.279Z,93.00
2023-09-27T02:26:27.090Z,93.00
2023-09-27T02:28:54.116Z,93.70
2023-09-27T02:31:21.275Z,93.80
2023-09-27T02:33:48.124Z,94.00
2023-09-27T02:36:15.079Z,93.90
2023-09-27T02:38:41.919Z,93.90
2023-09-27T02:41:09.074Z,93.30
2023-09-27T02:43:35.885Z,93.00
2023-09-27T02:46:02.696Z,93.00
2023-09-27T02:48:30.269Z,93.00
2023-09-27T02:50:57.123Z,93.00
2023-09-27T02:53:23.974Z,93.10
2023-09-27T02:55:50.809Z,93.20
2023-09-27T02:58:17.613Z,93.50
2023-09-27T03:00:44.490Z,93.40
2023-09-27T03:03:11.454Z,93.60
2023-09-27T03:05:38.524Z,93.80
2023-09-27T03:08:05.724Z,93.90
2023-09-27T03:10:38.262Z,93.90
2023-09-27T03:13:05.634Z,94.10
2023-09-27T03:15:32.751Z,94.10
2023-09-27T03:17:59.665Z,94.10
2023-09-27T03:20:26.544Z,94.30
2023-09-27T03:22:53.382Z,94.20
2023-09-27T03:25:20.473Z,94.50
2023-09-27T03:27:47.639Z,94.50
2023-09-27T03:30:14.870Z,94.80
2023-09-27T03:32:41.630Z,94.80
2023-09-27T03:35:09.740Z,94.50
2023-09-27T03:37:36.698Z,94.40
2023-09-27T03:40:05.180Z,94.50
2023-09-27T03:42:34.507Z,94.40
2023-09-27T03:45:01.275Z,94.50
2023-09-27T03:47:28.155Z,94.40
2023-09-27T03:49:55.061Z,94.40
2023-09-27T03:52:21.829Z,94.50
2023-09-27T03:54:48.577Z,94.80
2023-09-27T03:57:15.408Z,94.70
2023-09-27T03:59:42.199Z,94.40
2023-09-27T04:02:09.027Z,94.70
2023-09-27T04:04:35.969Z,94.60
2023-09-27T04:07:02.905Z,94.50
2023-09-27T04:09:30.171Z,94.90
2023-09-27T04:11:56.948Z,94.80
2023-09-27T04:14:23.837Z,94.80
2023-09-27T04:16:50.622Z,94.50
2023-09-27T04:19:17.383Z,94.60
2023-09-27T04:21:44.117Z,94.20
2023-09-27T04:24:10.894Z,94.00
2023-09-27T04:26:37.692Z,94.10
2023-09-27T04:29:05.662Z,94.30
2023-09-27T04:31:34.496Z,94.30
2023-09-27T04:34:01.316Z,94.10
2023-09-27T04:36:28.208Z,93.80
2023-09-27T04:38:55.140Z,93.30
2023-09-27T04:41:22.099Z,93.50
2023-09-27T04:43:48.928Z,94.00
2023-09-27T04:46:17.679Z,93.70
2023-09-27T04:48:45.453Z,93.80
2023-09-27T04:51:12.285Z,93.90
2023-09-27T04:53:39.496Z,94.00
2023-09-27T04:56:12.670Z,94.10
2023-09-27T04:58:42.958Z,94.20
2023-09-27T05:01:13.272Z,94.20
2023-09-27T05:03:40.215Z,94.70
2023-09-27T05:06:07.219Z,94.70
2023-09-27T05:08:34.092Z,95.10
2023-09-27T05:11:01.079Z,94.90
2023-09-27T05:13:28.133Z,94.70
2023-09-27T05:15:54.930Z,94.20
2023-09-27T05:18:23.843Z,94.80
2023-09-27T05:20:51.196Z,94.50
2023-09-27T05:23:18.148Z,94.70
2023-09-27T05:25:45.481Z,94.60
2023-09-27T05:28:12.312Z,94.80
2023-09-27T05:30:39.123Z,94.80
2023-09-27T05:33:05.966Z,95.00
2023-09-27T05:35:32.985Z,94.90
2023-09-27T05:38:00.120Z,94.70
2023-09-27T05:40:27.207Z,94.60
2023-09-27T05:42:54.023Z,94.50
2023-09-27T05:45:20.940Z,94.80
2023-09-27T05:47:47.936Z,94.90
2023-09-27T05:50:15.021Z,94.60
2023-09-27T05:52:44.953Z,94.60
2023-09-27T05:55:12.340Z,94.70
2023-09-27T05:57:39.784Z,94.60
2023-09-27T06:00:20.186Z,94.60
2023-09-27T06:02:48.553Z,94.50
2023-09-27T06:05:15.540Z,94.40
2023-09-27T06:07:43.862Z,94.20
2023-09-27T06:10:10.742Z,94.30
2023-09-27T06:12:37.786Z,94.20
2023-09-27T06:15:05.139Z,94.30
2023-09-27T06:17:32.281Z,94.50
2023-09-27T06:19:59.234Z,94.20
2023-09-27T06:22:28.192Z,94.30
2023-09-27T06:24:55.131Z,93.90
2023-09-27T06:27:21.963Z,93.50
2023-09-27T06:29:48.764Z,93.90
2023-09-27T06:32:15.578Z,93.80
2023-09-27T06:34:42.454Z,93.80
2023-09-27T06:37:09.234Z,93.30
2023-09-27T06:39:36.003Z,93.50
2023-09-27T06:42:03.626Z,93.50
2023-09-27T06:44:30.540Z,92.80
2023-09-27T06:46:57.694Z,93.00
2023-09-27T06:49:24.670Z,92.50
2023-09-27T06:51:51.575Z,93.00
2023-09-27T06:54:18.401Z,93.30
2023-09-27T06:56:45.257Z,93.60
2023-09-27T06:59:12.176Z,93.10
2023-09-27T07:01:39.106Z,92.60
2023-09-27T07:04:07.081Z,92.20
2023-09-27T07:06:34.105Z,92.90
2023-09-27T07:09:01.353Z,92.60
2023-09-27T07:11:28.291Z,93.10
2023-09-27T07:13:56.982Z,93.10
2023-09-27T07:16:29.785Z,92.80
2023-09-27T07:19:01.079Z,92.70
2023-09-27T07:21:29.224Z,92.70
2023-09-27T07:23:56.355Z,93.30
2023-09-27T07:26:23.235Z,93.20
2023-09-27T07:28:51.756Z,92.80
2023-09-27T07:31:19.195Z,92.80
2023-09-27T07:33:53.713Z,92.00
2023-09-27T07:36:25.302Z,92.30
2023-09-27T07:38:53.429Z,91.90
2023-09-27T07:41:21.605Z,91.40
2023-09-27T07:43:49.299Z,90.80
2023-09-27T07:46:18.857Z,91.90
2023-09-27T07:48:46.146Z,91.80
2023-09-27T07:51:14.114Z,91.30
2023-09-27T07:53:41.753Z,91.30
2023-09-27T07:56:10.683Z,90.90
2023-09-27T07:58:38.342Z,90.50
2023-09-27T08:01:06.057Z,90.90
2023-09-27T08:03:33.257Z,90.00
2023-09-27T08:06:00.482Z,90.90
2023-09-27T08:08:27.854Z,90.60
2023-09-27T08:10:55.059Z,90.50
2023-09-27T08:13:21.958Z,90.90
2023-09-27T08:15:52.622Z,90.70
2023-09-27T08:18:19.650Z,91.00
2023-09-27T08:20:46.605Z,91.20
2023-09-27T08:23:13.534Z,90.60
2023-09-27T08:25:40.409Z,89.70
2023-09-27T08:28:07.866Z,88.80
2023-09-27T08:30:34.863Z,88.70
2023-09-27T08:33:02.473Z,87.70
2023-09-27T08:35:29.678Z,88.20
2023-09-27T08:37:56.598Z,87.80
2023-09-27T08:40:23.581Z,88.20
2023-09-27T08:43:01.080Z,87.60
2023-09-27T08:45:28.793Z,86.40
2023-09-27T08:47:55.924Z,86.10
2023-09-27T08:50:25.694Z,85.80
2023-09-27T08:52:52.773Z,87.10
2023-09-27T08:55:21.034Z,87.40
2023-09-27T08:57:51.114Z,85.80
2023-09-27T09:00:23.352Z,86.00
2023-09-27T09:03:02.564Z,85.70
2023-09-27T09:05:32.099Z,85.90
2023-09-27T09:08:01.614Z,84.20
2023-09-27T09:10:30.176Z,83.20
2023-09-27T09:13:00.505Z,83.20
2023-09-27T09:15:29.905Z,83.90
2023-09-27T09:18:00.355Z,83.10
2023-09-27T09:20:34.439Z,83.40
2023-09-27T09:23:13.677Z,83.30
2023-09-27T09:25:44.987Z,82.70
2023-09-27T09:28:14.610Z,82.80
2023-09-27T09:30:42.111Z,82.70
2023-09-27T09:33:23.606Z,83.90
2023-09-27T09:35:52.786Z,83.10
2023-09-27T09:38:26.313Z,83.50
2023-09-27T09:40:54.605Z,82.60
2023-09-27T09:43:38.800Z,82.30
2023-09-27T09:46:08.194Z,82.00
2023-09-27T09:48:36.357Z,82.00
2023-09-27T09:51:08.683Z,82.60
2023-09-27T09:53:42.159Z,83.10
2023-09-27T09:58:48.651Z,78.80
2023-09-27T10:01:22.854Z,79.50
2023-09-27T10:03:53.325Z,79.30
2023-09-27T10:06:29.670Z,79.20
2023-09-27T10:09:14.889Z,77.90
2023-09-27T10:11:46.537Z,78.30
2023-09-27T10:14:16.872Z,78.40
2023-09-27T10:16:44.654Z,78.80
2023-09-27T10:19:11.823Z,77.10
2023-09-27T10:22:06.256Z,78.70
2023-09-27T10:24:37.110Z,78.00
2023-09-27T10:27:04.274Z,76.90
2023-09-27T10:29:31.255Z,77.80
2023-09-27T10:31:58.094Z,75.70
2023-09-27T10:34:30.876Z,74.50
2023-09-27T10:37:15.595Z,74.30
2023-09-27T10:40:20.923Z,75.20
2023-09-27T10:42:48.565Z,75.00
2023-09-27T10:45:17.924Z,76.40
2023-09-27T10:47:48.077Z,74.30
2023-09-27T10:50:17.624Z,73.00
2023-09-27T10:52:44.455Z,72.90
2023-09-27T10:55:12.930Z,72.60
2023-09-27T10:57:43.080Z,71.70
2023-09-27T11:00:13.484Z,71.90
2023-09-27T11:02:41.137Z,71.50
2023-09-27T11:05:09.478Z,73.50
2023-09-27T11:07:50.373Z,71.70
2023-09-27T11:10:36.156Z,72.00
2023-09-27T11:13:11.490Z,70.70
2023-09-27T11:15:39.061Z,69.60
2023-09-27T11:18:08.431Z,69.00
2023-09-27T11:20:36.358Z,70.70
2023-09-27T11:23:04.207Z,69.90
2023-09-27T11:25:34.649Z,69.50
2023-09-27T11:28:02.069Z,70.10
2023-09-27T11:30:34.755Z,68.20
2023-09-27T11:33:09.025Z,69.40
2023-09-27T11:35:36.119Z,70.70
2023-09-27T11:38:11.048Z,70.10
2023-09-27T11:40:39.579Z,70.00
2023-09-27T11:43:06.752Z,68.00
2023-09-27T11:45:50.507Z,67.00
2023-09-27T11:48:31.428Z,66.90
2023-09-27T11:50:59.752Z,67.90
2023-09-27T11:53:27.520Z,67.90
2023-09-27T11:55:56.460Z,68.80
2023-09-27T11:58:26.323Z,68.50
2023-09-27T12:00:53.363Z,68.70
2023-09-27T12:03:20.302Z,69.00
2023-09-27T12:05:47.923Z,68.00
2023-09-27T12:08:15.115Z,69.50
2023-09-27T12:10:41.956Z,68.20
2023-09-27T12:13:08.759Z,67.30
2023-09-27T12:15:35.633Z,67.40
2023-09-27T12:18:02.776Z,66.00
2023-09-27T12:20:41.449Z,64.50
2023-09-27T12:23:10.833Z,64.70
2023-09-27T12:25:38.492Z,62.80
2023-09-27T12:28:06.001Z,62.50
2023-09-27T12:30:32.856Z,60.20
2023-09-27T12:32:59.946Z,59.60
2023-09-27T12:35:27.454Z,57.70
2023-09-27T12:37:54.542Z,57.40
2023-09-27T12:40:21.549Z,58.10
2023-09-27T12:42:48.431Z,56.40
2023-09-27T12:45:15.237Z,54.90
2023-09-27T12:47:42.884Z,54.80
2023-09-27T12:50:11.039Z,54.40
2023-09-27T12:52:38.227Z,53.90
2023-09-27T12:55:06.474Z,50.10
2023-09-27T12:57:33.707Z,50.60
2023-09-27T13:00:00.732Z,50.70
2023-09-27T13:02:28.319Z,49.80
2023-09-27T13:04:55.507Z,48.70
2023-09-27T13:07:22.393Z,50.40
2023-09-27T13:09:50.253Z,50.20
2023-09-27T13:12:17.304Z,51.00
2023-09-27T13:14:44.184Z,52.00
2023-09-27T13:17:11.481Z,49.20
2023-09-27T13:19:38.555Z,50.20
2023-09-27T13:22:05.496Z,51.70
2023-09-27T13:24:32.675Z,49.60
2023-09-27T13:27:00.189Z,48.90
2023-09-27T13:29:27.442Z,48.70
2023-09-27T13:31:54.380Z,46.50
2023-09-27T13:34:21.190Z,47.50
2023-09-27T13:36:48.003Z,47.80
2023-09-27T13:39:15.497Z,48.20
2023-09-27T13:41:43.782Z,46.90
2023-09-27T13:44:12.084Z,46.80
2023-09-27T13:46:39.171Z,44.80
2023-09-27T13:49:07.361Z,46.10
2023-09-27T13:51:38.207Z,44.40
2023-09-27T13:54:06.329Z,44.10
2023-09-27T13:56:33.606Z,43.50
2023-09-27T13:59:00.764Z,42.90
2023-09-27T14:01:29.598Z,44.10
2023-09-27T14:03:58.170Z,42.90
2023-09-27T14:06:25.063Z,42.20
2023-09-27T14:08:52.542Z,44.60
2023-09-27T14:11:19.781Z,44.60
2023-09-27T14:13:46.659Z,44.60
2023-09-27T14:16:14.367Z,42.90
2023-09-27T14:18:41.821Z,43.20
2023-09-27T14:21:11.747Z,43.50
2023-09-27T14:23:39.114Z,44.20
2023-09-27T14:26:07.367Z,42.80
2023-09-27T14:28:34.311Z,41.90
2023-09-27T14:31:01.234Z,42.20
2023-09-27T14:33:29.334Z,42.60
2023-09-27T14:35:56.974Z,45.60
2023-09-27T14:38:23.861Z,45.10
2023-09-27T14:40:53.559Z,44.60
2023-09-27T14:43:20.438Z,45.10
2023-09-27T14:45:49.593Z,44.10
2023-09-27T14:48:17.659Z,46.10
2023-09-27T14:50:45.578Z,45.00
2023-09-27T14:53:12.347Z,46.50
2023-09-27T14:55:39.230Z,43.90
2023-09-27T14:58:06.434Z,43.20
2023-09-27T15:00:33.441Z,43.10
2023-09-27T15:03:00.920Z,42.40
2023-09-27T15:05:28.258Z,41.30
2023-09-27T15:07:55.235Z,42.50
2023-09-27T15:10:25.190Z,43.10
2023-09-27T15:12:52.068Z,42.90
2023-09-27T15:15:21.239Z,42.20
2023-09-27T15:17:48.166Z,42.20
2023-09-27T15:20:15.820Z,41.80
2023-09-27T15:22:43.097Z,41.40
2023-09-27T15:25:12.236Z,41.90
2023-09-27T15:27:39.300Z,41.80
2023-09-27T15:30:08.993Z,41.90
2023-09-27T15:32:38.263Z,41.20
2023-09-27T15:35:06.092Z,39.20
2023-09-27T15:37:33.071Z,39.20
2023-09-27T15:39:59.856Z,39.20
2023-09-27T15:42:27.009Z,39.90
2023-09-27T15:44:54.304Z,39.20
2023-09-27T15:47:21.174Z,38.60
2023-09-27T15:49:48.056Z,38.80
2023-09-27T15:52:17.727Z,40.30
2023-09-27T15:54:45.236Z,39.80
2023-09-27T15:57:12.326Z,40.00
2023-09-27T15:59:42.339Z,40.90
2023-09-27T16:02:09.491Z,41.10
2023-09-27T16:04:42.121Z,41.70
2023-09-27T16:07:18.162Z,43.00
2023-09-27T16:09:45.561Z,44.00
2023-09-27T16:12:14.848Z,45.90
2023-09-27T16:14:41.827Z,47.60
2023-09-27T16:17:08.817Z,49.10
2023-09-27T16:19:35.698Z,50.20
2023-09-27T16:22:04.809Z,51.50
2023-09-27T16:24:31.733Z,53.50
2023-09-27T16:27:00.764Z,55.10
2023-09-27T16:29:27.910Z,56.60
2023-09-27T16:31:55.590Z,58.10
2023-09-27T16:34:23.143Z,58.90
2023-09-27T16:36:50.180Z,60.20
2023-09-27T16:39:17.151Z,61.50
2023-09-27T16:41:44.257Z,62.90
2023-09-27T16:44:11.198Z,64.10
2023-09-27T16:46:38.317Z,64.90
2023-09-27T16:49:05.323Z,65.70
2023-09-27T16:51:32.332Z,67.30
2023-09-27T16:53:59.229Z,68.50
2023-09-27T16:56:25.974Z,69.30
2023-09-27T16:58:52.813Z,70.50
2023-09-27T17:01:23.104Z,71.50
2023-09-27T17:03:50.143Z,72.80
2023-09-27T17:06:19.402Z,73.00
2023-09-27T17:08:46.329Z,73.00
2023-09-27T17:11:13.101Z,72.50
2023-09-27T17:13:39.940Z,72.70
2023-09-27T17:16:08.410Z,73.90
2023-09-27T17:18:35.325Z,74.60
2023-09-27T17:21:02.458Z,75.30
2023-09-27T17:23:29.611Z,75.80
2023-09-27T17:25:56.678Z,76.00
2023-09-27T17:28:23.529Z,76.30
2023-09-27T17:30:52.253Z,76.80
2023-09-27T17:33:19.456Z,77.60
2023-09-27T17:35:46.319Z,78.30
2023-09-27T17:38:13.251Z,79.20
2023-09-27T17:40:40.467Z,79.40
2023-09-27T17:43:07.260Z,79.10
2023-09-27T17:45:34.048Z,79.20
2023-09-27T17:48:00.994Z,79.20
2023-09-27T17:50:29.732Z,79.50
2023-09-27T17:52:56.569Z,80.70
2023-09-27T17:55:24.025Z,80.70
2023-09-27T17:57:50.897Z,80.50
2023-09-27T18:00:18.842Z,82.00
2023-09-27T18:02:45.829Z,83.20
2023-09-27T18:05:12.671Z,83.00
2023-09-27T18:07:39.711Z,82.70
2023-09-27T18:10:07.142Z,82.50
2023-09-27T18:12:33.973Z,82.70
2023-09-27T18:15:07.305Z,83.10
2023-09-27T18:17:40.485Z,81.90
2023-09-27T18:20:07.866Z,82.50
2023-09-27T18:22:35.346Z,83.60
2023-09-27T18:25:02.127Z,83.60
2023-09-27T18:27:29.917Z,83.70
2023-09-27T18:29:56.733Z,83.90
2023-09-27T18:32:23.718Z,84.80
2023-09-27T18:34:50.602Z,84.70
2023-09-27T18:37:17.382Z,83.80
2023-09-27T18:39:44.706Z,84.00
2023-09-27T18:42:11.498Z,84.10
2023-09-27T18:44:38.280Z,84.80
2023-09-27T18:47:05.260Z,84.80
2023-09-27T18:49:32.216Z,86.20
2023-09-27T18:51:59.135Z,85.50
2023-09-27T18:54:25.864Z,85.20
2023-09-27T18:56:53.722Z,85.40
2023-09-27T18:59:20.742Z,85.50
2023-09-27T19:01:47.714Z,86.00
2023-09-27T19:04:15.389Z,85.20
2023-09-27T19:06:43.068Z,86.40
2023-09-27T19:09:11.417Z,86.30
2023-09-27T19:11:38.277Z,85.40
2023-09-27T19:14:05.278Z,85.10
2023-09-27T19:16:32.470Z,84.20
2023-09-27T19:18:59.858Z,84.80
2023-09-27T19:21:27.166Z,85.20
2023-09-27T19:23:54.355Z,85.80
2023-09-27T19:26:21.606Z,86.90
2023-09-27T19:28:48.432Z,86.70
2023-09-27T19:31:15.295Z,87.10
2023-09-27T19:33:43.311Z,87.40
2023-09-27T19:36:21.023Z,87.30
2023-09-27T19:38:48.860Z,87.20
2023-09-27T19:41:20.717Z,83.70
2023-09-27T19:43:47.530Z,83.80
2023-09-27T19:46:20.640Z,86.60
2023-09-27T19:48:47.462Z,87.70
2023-09-27T19:51:27.628Z,88.20
2023-09-27T19:53:55.938Z,88.50
2023-09-27T19:56:23.204Z,87.70
2023-09-27T19:58:50.330Z,87.60
2023-09-27T20:01:32.530Z,87.90
2023-09-27T20:03:59.958Z,89.00
2023-09-27T20:06:28.563Z,88.90
2023-09-27T20:08:55.677Z,88.30
2023-09-27T20:11:22.698Z,87.90
2023-09-27T20:13:49.988Z,84.90
2023-09-27T20:16:16.859Z,85.10
2023-09-27T20:18:43.672Z,88.00
2023-09-27T20:21:10.509Z,88.80
2023-09-27T20:23:39.165Z,89.50
2023-09-27T20:26:06.447Z,88.90
2023-09-27T20:28:33.407Z,88.70
2023-09-27T20:31:00.214Z,89.30
2023-09-27T20:33:27.096Z,90.00
2023-09-27T20:35:53.884Z,88.90
2023-09-27T20:38:20.676Z,88.80
2023-09-27T20:40:47.809Z,88.50
2023-09-27T20:43:14.653Z,88.40
2023-09-27T20:45:42.671Z,88.40
2023-09-27T20:48:09.473Z,88.90
2023-09-27T20:50:37.262Z,88.90
2023-09-27T20:53:04.278Z,88.60
2023-09-27T20:55:31.762Z,89.20
2023-09-27T20:58:02.339Z,89.20
2023-09-27T21:00:29.453Z,88.90
2023-09-27T21:02:56.897Z,89.40
2023-09-27T21:05:23.772Z,89.30
2023-09-27T21:07:51.294Z,89.90
2023-09-27T21:10:18.240Z,89.70
2023-09-27T21:12:45.054Z,88.20
2023-09-27T21:15:12.035Z,87.00
2023-09-27T21:17:39.014Z,87.70
2023-09-27T21:20:06.470Z,87.70
2023-09-27T21:22:34.618Z,88.20
2023-09-27T21:25:01.446Z,88.80
2023-09-27T21:27:29.223Z,89.10
2023-09-27T21:29:56.065Z,89.30
2023-09-27T21:32:22.897Z,88.70
2023-09-27T21:34:49.748Z,88.40
2023-09-27T21:37:16.624Z,87.30
2023-09-27T21:39:43.766Z,88.10
2023-09-27T21:42:10.559Z,87.60
2023-09-27T21:44:37.316Z,87.70
2023-09-27T21:47:05.254Z,87.30
2023-09-27T21:49:32.125Z,88.00
2023-09-27T21:51:58.895Z,88.20
2023-09-27T21:54:25.680Z,88.40
2023-09-27T21:56:52.463Z,88.50
2023-09-27T21:59:19.223Z,88.40
2023-09-27T22:01:46.078Z,88.20
2023-09-27T22:04:12.960Z,88.00
2023-09-27T22:06:39.961Z,87.10
2023-09-27T22:09:06.861Z,87.80
2023-09-27T22:11:33.756Z,88.50
2023-09-27T22:14:05.720Z,88.90
2023-09-27T22:16:34.243Z,89.50
2023-09-27T22:19:11.841Z,89.90
2023-09-27T22:21:42.638Z,90.40
2023-09-27T22:24:12.333Z,91.20
2023-09-27T22:26:39.485Z,91.50
2023-09-27T22:29:10.264Z,92.00
2023-09-27T22:31:40.582Z,91.40
2023-09-27T22:34:23.934Z,90.40
2023-09-27T22:36:58.700Z,89.90
2023-09-27T22:39:25.436Z,89.50
2023-09-27T22:41:53.584Z,89.10
2023-09-27T22:44:21.692Z,89.30
2023-09-27T22:46:51.454Z,90.20
2023-09-27T22:49:19.946Z,90.40
2023-09-27T22:51:47.534Z,89.20
2023-09-27T22:54:22.405Z,89.50
2023-09-27T22:56:51.715Z,89.70
2023-09-27T22:59:18.556Z,90.10
2023-09-27T23:01:46.967Z,90.40
2023-09-27T23:04:17.081Z,90.60
2023-09-27T23:07:01.242Z,90.20
2023-09-27T23:09:35.800Z,89.80
2023-09-27T23:12:20.520Z,89.60
2023-09-27T23:15:07.127Z,90.90
2023-09-27T23:17:56.033Z,91.10
2023-09-27T23:20:30.173Z,90.90
2023-09-27T23:22:58.525Z,91.00
2023-09-27T23:25:44.204Z,90.70
2023-09-27T23:28:17.723Z,90.50
2023-09-27T23:30:53.873Z,90.50
2023-09-27T23:33:20.693Z,90.70
2023-09-27T23:35:51.201Z,89.80
2023-09-27T23:38:37.721Z,90.30
2023-09-27T23:41:04.952Z,90.40
2023-09-27T23:43:43.147Z,90.30
2023-09-27T23:46:21.263Z,90.70
2023-09-27T23:48:49.008Z,90.90
2023-09-27T23:51:15.800Z,91.00
2023-09-27T23:53:43.071Z,91.20
2023-09-27T23:56:10.916Z,92.20
2023-09-27T23:58:42.554Z,92.20
